Time;durP1;ratioP1;P1;durP2;ratioP2;P2;SDS_P1;SDS_P2;PMS_P1;PMS_P2;Temp;Humidity;BMP_temperature;BMP_pressure;BME280_temperature;BME280_humidity;BME280_pressure;Samples;Min_cycle;Max_cycle;Signal;HPM_P1;HPM_P2
2022/08/29 00:00:15;;;;;;;0.10;0.10;;;;;;;12.08;88.02;102142.31;5011574;28;20025;-73
2022/08/29 00:02:40;;;;;;;0.10;0.10;;;;;;;11.96;87.81;102150.19;5009790;28;20040;-73
2022/08/29 00:05:06;;;;;;;0.00;0.00;;;;;;;11.85;87.29;102142.78;5008504;28;20037;-73
2022/08/29 00:07:32;;;;;;;0.00;0.00;;;;;;;11.71;87.06;102132.00;5006231;28;20558;-73
2022/08/29 00:09:57;;;;;;;0.00;0.00;;;;;;;11.66;88.10;102140.38;5006155;28;20053;-73
2022/08/29 00:12:22;;;;;;;0.10;0.10;;;;;;;11.60;88.11;102135.34;4997122;28;20488;-73
2022/08/29 00:14:48;;;;;;;0.05;0.05;;;;;;;11.43;88.56;102138.22;5005553;28;20119;-73
2022/08/29 00:17:13;;;;;;;0.00;0.00;;;;;;;11.38;88.67;102133.13;5001415;28;20033;-73
2022/08/29 00:19:38;;;;;;;0.00;0.00;;;;;;;11.33;88.66;102133.41;5002756;28;20053;-73
2022/08/29 00:22:04;;;;;;;0.10;0.10;;;;;;;11.30;88.41;102125.50;5009815;28;20029;-73
2022/08/29 00:24:29;;;;;;;0.10;0.10;;;;;;;11.39;87.69;102130.34;5008049;28;20136;-73
2022/08/29 00:26:54;;;;;;;0.00;0.00;;;;;;;11.43;87.04;102127.47;5004861;28;20124;-73
2022/08/29 00:29:20;;;;;;;0.00;0.00;;;;;;;11.46;86.90;102124.59;5004232;28;21093;-73
2022/08/29 00:31:45;;;;;;;0.00;0.00;;;;;;;11.35;85.82;102118.03;4996753;28;20100;-73
2022/08/29 00:34:10;;;;;;;0.00;0.00;;;;;;;11.35;86.77;102125.25;5003595;28;20023;-73
2022/08/29 00:36:36;;;;;;;0.00;0.00;;;;;;;11.31;87.44;102127.25;5006886;28;20062;-73
2022/08/29 00:39:02;;;;;;;0.05;0.05;;;;;;;11.33;87.17;102136.09;5001897;28;20029;-73
2022/08/29 00:41:28;;;;;;;0.00;0.00;;;;;;;11.20;86.70;102132.41;4998283;28;20037;-73
2022/08/29 00:43:53;;;;;;;0.03;0.03;;;;;;;11.06;87.66;102141.31;5012281;28;20061;-73
2022/08/29 00:46:40;;;;;;;0.10;0.10;;;;;;;10.94;87.41;102140.22;5016196;28;20048;-73
2022/08/29 00:49:17;;;;;;;0.00;0.00;;;;;;;10.80;87.83;102141.00;5012920;28;20038;-73
2022/08/29 00:51:43;;;;;;;0.00;0.00;;;;;;;10.58;88.17;102115.41;5023460;28;20356;-73
2022/08/29 00:54:10;;;;;;;0.00;0.00;;;;;;;10.71;88.95;102146.91;5007108;28;20044;-73
2022/08/29 00:56:38;;;;;;;0.00;0.00;;;;;;;10.62;88.51;102154.53;5011220;28;20033;-73
2022/08/29 00:59:10;;;;;;;0.00;0.00;;;;;;;10.56;89.19;102146.84;5011066;28;20022;-73
2022/08/29 01:01:36;;;;;;;0.00;0.00;;;;;;;10.45;89.72;102134.03;5004759;28;20060;-73
2022/08/29 01:04:02;;;;;;;0.10;0.10;;;;;;;10.50;89.62;102139.97;5002892;28;20391;-73
2022/08/29 01:06:28;;;;;;;0.00;0.00;;;;;;;10.40;89.07;102127.16;5014751;28;20057;-73
2022/08/29 01:08:54;;;;;;;0.00;0.00;;;;;;;10.47;89.27;102140.16;5008745;28;20112;-73
2022/08/29 01:14:03;;;;;;;0.10;0.10;;;;;;;10.28;88.85;102128.69;5008254;28;20036;-73
2022/08/29 01:16:30;;;;;;;0.00;0.00;;;;;;;10.21;89.20;102139.75;5002564;28;20038;-73
2022/08/29 01:19:02;;;;;;;0.03;0.03;;;;;;;10.21;89.71;102149.66;5005148;28;20064;-73
2022/08/29 01:21:42;;;;;;;0.10;0.10;;;;;;;9.97;89.60;102123.22;5010618;28;20038;-73
2022/08/29 01:24:28;;;;;;;0.03;0.03;;;;;;;10.13;88.75;102163.50;4998376;28;20472;-73
2022/08/29 01:26:54;;;;;;;0.10;0.10;;;;;;;10.12;89.11;102160.88;5004616;28;20045;-73
2022/08/29 01:29:19;;;;;;;0.00;0.00;;;;;;;10.19;89.64;102163.16;5008247;28;20026;-73
2022/08/29 01:31:47;;;;;;;0.00;0.00;;;;;;;10.23;89.08;102166.53;5009423;28;20029;-73
2022/08/29 01:34:14;;;;;;;0.10;0.10;;;;;;;10.16;88.45;102165.13;5006792;28;20404;-73
2022/08/29 01:36:54;;;;;;;0.00;0.00;;;;;;;10.18;88.38;102157.88;5007040;28;20033;-73
2022/08/29 01:39:25;;;;;;;0.00;0.00;;;;;;;10.21;88.99;102153.19;4986770;28;20528;-73
2022/08/29 01:41:51;;;;;;;0.10;0.10;;;;;;;10.17;88.26;102159.69;5007351;28;20471;-73
2022/08/29 01:44:19;;;;;;;0.00;0.00;;;;;;;10.04;88.35;102153.25;5001134;28;20042;-73
2022/08/29 01:46:45;;;;;;;0.00;0.00;;;;;;;9.79;89.16;102146.53;5010462;28;20053;-73
2022/08/29 01:49:12;;;;;;;0.10;0.10;;;;;;;9.65;90.55;102133.00;5013723;28;20030;-73
2022/08/29 01:51:38;;;;;;;0.10;0.10;;;;;;;9.75;90.52;102163.75;4990320;28;20022;-73
2022/08/29 01:54:06;;;;;;;0.10;0.10;;;;;;;9.59;90.45;102151.16;5005571;28;20101;-73
2022/08/29 01:56:32;;;;;;;0.00;0.00;;;;;;;9.61;91.10;102159.09;5007753;28;20026;-73
2022/08/29 01:58:59;;;;;;;0.10;0.10;;;;;;;9.51;92.13;102145.31;5009481;28;20028;-74
2022/08/29 02:01:27;;;;;;;0.10;0.10;;;;;;;9.60;92.29;102163.63;5005409;28;20029;-73
2022/08/29 02:03:52;;;;;;;0.03;0.03;;;;;;;9.58;91.43;102160.16;5009132;28;20167;-74
2022/08/29 02:06:17;;;;;;;0.10;0.10;;;;;;;9.40;91.45;102124.44;5002660;28;20033;-73
2022/08/29 02:08:43;;;;;;;0.10;0.10;;;;;;;9.63;91.37;102151.00;5006098;28;20130;-73
2022/08/29 02:11:10;;;;;;;0.00;0.00;;;;;;;9.62;91.11;102146.59;5002289;28;20536;-73
2022/08/29 02:13:45;;;;;;;0.10;0.10;;;;;;;9.58;90.87;102144.06;5009708;28;20025;-73
2022/08/29 02:16:11;;;;;;;0.00;0.00;;;;;;;9.43;91.24;102137.69;5011492;28;20492;-73
2022/08/29 02:18:37;;;;;;;0.10;0.10;;;;;;;9.49;90.83;102149.03;5007920;28;20161;-73
2022/08/29 02:21:03;;;;;;;0.00;0.00;;;;;;;9.36;90.67;102119.34;5006445;28;20104;-73
2022/08/29 02:23:29;;;;;;;0.00;0.00;;;;;;;9.60;91.08;102152.00;5001455;28;20117;-75
2022/08/29 02:25:55;;;;;;;0.00;0.00;;;;;;;9.64;90.73;102155.41;4996227;28;20030;-73
2022/08/29 02:28:21;;;;;;;0.05;0.05;;;;;;;9.36;89.34;102127.38;4998264;28;20037;-75
2022/08/29 02:30:49;;;;;;;0.00;0.00;;;;;;;9.46;89.65;102158.09;5008589;28;20034;-76
2022/08/29 02:33:15;;;;;;;0.08;0.08;;;;;;;9.40;89.69;102169.16;5004776;28;20408;-76
2022/08/29 02:35:41;;;;;;;0.00;0.00;;;;;;;9.14;89.58;102131.13;5006810;28;20032;-76
2022/08/29 02:38:07;;;;;;;0.03;0.03;;;;;;;9.29;90.02;102159.84;5009798;28;20033;-76
2022/08/29 02:40:33;;;;;;;0.00;0.00;;;;;;;9.38;90.07;102165.69;5005762;28;20030;-76
2022/08/29 02:42:59;;;;;;;0.10;0.10;;;;;;;9.28;89.66;102155.44;5006266;28;20488;-76
2022/08/29 02:45:24;;;;;;;0.00;0.00;;;;;;;9.28;90.10;102167.94;5005421;28;20449;-75
2022/08/29 02:47:50;;;;;;;0.00;0.00;;;;;;;9.29;90.01;102178.59;5011101;28;20533;-76
2022/08/29 02:50:15;;;;;;;0.10;0.10;;;;;;;9.20;89.91;102170.19;5005447;28;20037;-76
2022/08/29 02:52:42;;;;;;;0.10;0.10;;;;;;;9.14;90.19;102169.53;5018919;28;20030;-76
2022/08/29 02:55:09;;;;;;;0.10;0.10;;;;;;;9.13;90.54;102165.13;5004589;28;20026;-76
2022/08/29 02:57:34;;;;;;;0.00;0.00;;;;;;;9.05;90.28;102164.63;5007891;28;20099;-76
2022/08/29 03:00:00;;;;;;;0.08;0.08;;;;;;;9.11;90.14;102175.03;5008535;28;20457;-76
2022/08/29 03:02:26;;;;;;;0.10;0.10;;;;;;;9.00;90.14;102164.00;5008320;28;20040;-76
2022/08/29 03:04:51;;;;;;;0.05;0.05;;;;;;;9.01;90.13;102176.44;5010776;28;20304;-76
2022/08/29 03:07:17;;;;;;;0.08;0.08;;;;;;;9.02;90.97;102174.63;5004703;28;20026;-75
2022/08/29 03:09:42;;;;;;;0.10;0.10;;;;;;;9.08;90.93;102180.56;5009144;28;20113;-76
2022/08/29 03:12:07;;;;;;;0.10;0.10;;;;;;;9.05;91.02;102175.34;5004763;28;20101;-76
2022/08/29 03:14:33;;;;;;;0.00;0.00;;;;;;;9.02;91.54;102164.78;5006629;28;20025;-76
2022/08/29 03:16:58;;;;;;;0.03;0.03;;;;;;;8.89;91.73;102139.56;5016822;28;20132;-76
2022/08/29 03:19:24;;;;;;;0.00;0.00;;;;;;;9.00;92.17;102151.47;5005590;28;20034;-76
2022/08/29 03:21:50;;;;;;;0.00;0.00;;;;;;;9.03;92.10;102153.13;5008776;28;20037;-76
2022/08/29 03:24:15;;;;;;;0.10;0.10;;;;;;;9.06;91.49;102155.66;5006006;28;20950;-76
2022/08/29 03:26:40;;;;;;;0.10;0.10;;;;;;;8.90;92.46;102123.41;4998280;28;20036;-76
2022/08/29 03:29:06;;;;;;;0.10;0.10;;;;;;;8.99;92.03;102154.25;5001796;28;20029;-76
2022/08/29 03:31:31;;;;;;;0.10;0.10;;;;;;;8.94;92.17;102150.91;4993131;28;20115;-75
2022/08/29 03:33:56;;;;;;;0.10;0.10;;;;;;;8.84;91.92;102143.34;4999401;28;20057;-75
2022/08/29 03:36:23;;;;;;;0.10;0.10;;;;;;;8.84;92.41;102142.47;5003356;28;20368;-75
2022/08/29 03:38:49;;;;;;;0.10;0.10;;;;;;;8.90;92.36;102152.00;5000620;28;20034;-76
2022/08/29 03:41:22;;;;;;;0.08;0.08;;;;;;;8.71;92.71;102139.53;5002112;28;20502;-75
2022/08/29 03:43:47;;;;;;;0.10;0.10;;;;;;;8.80;93.41;102159.63;5007367;28;20342;-75
2022/08/29 03:46:12;;;;;;;0.10;0.10;;;;;;;8.82;93.46;102152.41;5006881;28;20132;-76
2022/08/29 03:48:37;;;;;;;0.10;0.10;;;;;;;8.76;92.89;102145.50;5005532;28;20114;-76
2022/08/29 03:51:03;;;;;;;0.05;0.05;;;;;;;8.81;92.55;102161.38;5001324;28;20029;-76
2022/08/29 03:53:28;;;;;;;0.10;0.10;;;;;;;8.84;92.87;102155.88;5003858;28;20063;-76
2022/08/29 03:55:53;;;;;;;0.00;0.00;;;;;;;8.90;94.12;102152.00;5004660;28;20427;-76
2022/08/29 03:58:19;;;;;;;0.00;0.00;;;;;;;8.70;93.66;102124.41;5012989;28;20546;-76
2022/08/29 04:00:45;;;;;;;0.00;0.00;;;;;;;8.82;93.50;102145.22;5006579;28;20634;-76
2022/08/29 04:03:11;;;;;;;0.10;0.10;;;;;;;8.89;94.16;102142.25;4997705;28;20034;-75
2022/08/29 04:05:36;;;;;;;0.10;0.10;;;;;;;8.95;95.43;102145.47;5003697;28;20037;-75
2022/08/29 04:08:01;;;;;;;0.10;0.10;;;;;;;9.02;96.16;102137.13;5008540;28;20025;-75
2022/08/29 04:10:30;;;;;;;0.00;0.00;;;;;;;9.10;94.91;102153.69;5011992;28;20786;-75
2022/08/29 04:12:55;;;;;;;0.15;0.15;;;;;;;8.94;94.18;102146.41;5016000;28;20035;-76
2022/08/29 04:15:22;;;;;;;0.00;0.00;;;;;;;8.92;94.73;102150.13;5012839;28;20026;-75
2022/08/29 04:17:56;;;;;;;0.10;0.10;;;;;;;8.94;95.21;102154.44;5013475;28;20037;-75
2022/08/29 04:20:23;;;;;;;0.10;0.10;;;;;;;8.97;95.86;102153.44;5005623;28;20034;-76
2022/08/29 04:22:48;;;;;;;0.10;0.10;;;;;;;8.99;97.28;102147.06;5004580;28;20108;-75
2022/08/29 04:25:14;;;;;;;0.20;0.20;;;;;;;9.01;97.53;102152.31;5010722;28;20121;-74
2022/08/29 04:27:40;;;;;;;0.00;0.00;;;;;;;8.94;96.10;102148.25;5017156;28;20073;-72
2022/08/29 04:30:10;;;;;;;0.10;0.10;;;;;;;8.96;96.07;102149.88;5012696;28;20762;-70
2022/08/29 04:32:35;;;;;;;0.10;0.10;;;;;;;9.00;96.87;102154.16;5011940;28;20069;-74
2022/08/29 04:35:01;;;;;;;0.10;0.10;;;;;;;8.87;95.39;102144.13;5002833;28;20053;-72
2022/08/29 04:37:26;;;;;;;0.10;0.10;;;;;;;8.63;94.20;102117.63;4999325;28;20109;-69
2022/08/29 04:39:52;;;;;;;0.10;0.10;;;;;;;8.68;94.17;102145.03;5003512;28;20058;-71
2022/08/29 04:42:18;;;;;;;0.00;0.00;;;;;;;8.52;94.26;102136.88;5010058;28;21035;-71
2022/08/29 04:44:43;;;;;;;0.10;0.10;;;;;;;8.54;94.43;102143.03;5010287;28;20033;-70
2022/08/29 04:47:09;;;;;;;0.10;0.10;;;;;;;8.50;94.84;102138.78;5010135;28;20064;-71
2022/08/29 04:49:35;;;;;;;0.10;0.10;;;;;;;8.53;94.81;102152.00;5012733;28;20057;-71
2022/08/29 04:52:00;;;;;;;0.10;0.10;;;;;;;8.58;95.48;102154.47;5011417;28;20030;-71
2022/08/29 04:54:26;;;;;;;0.00;0.00;;;;;;;8.54;95.06;102151.06;5009098;28;20029;-71
2022/08/29 04:56:51;;;;;;;0.10;0.10;;;;;;;8.50;95.20;102153.00;5003087;28;20084;-71
2022/08/29 04:59:16;;;;;;;0.10;0.10;;;;;;;8.45;94.54;102154.16;5012303;28;20037;-71
2022/08/29 05:01:42;;;;;;;0.43;0.20;;;;;;;8.39;94.08;102156.16;5018996;28;20037;-71
2022/08/29 05:04:07;;;;;;;0.25;0.25;;;;;;;8.38;94.17;102148.22;5002034;28;20381;-71
2022/08/29 05:06:32;;;;;;;0.10;0.10;;;;;;;8.49;96.09;102156.63;5005006;28;20112;-72
2022/08/29 05:08:58;;;;;;;0.32;0.20;;;;;;;8.42;94.88;102152.50;5021240;28;20143;-71
2022/08/29 05:11:23;;;;;;;0.10;0.10;;;;;;;8.47;95.55;102161.19;5007575;28;20120;-71
2022/08/29 05:13:50;;;;;;;0.03;0.03;;;;;;;8.49;95.46;102161.13;4998572;28;20499;-71
2022/08/29 05:16:16;;;;;;;0.00;0.00;;;;;;;8.51;95.52;102169.94;5015005;28;20759;-71
2022/08/29 05:18:43;;;;;;;0.10;0.10;;;;;;;8.62;95.90;102182.81;5008104;28;20030;-71
2022/08/29 05:21:08;;;;;;;0.10;0.10;;;;;;;8.72;97.25;102170.72;5008707;28;20105;-71
2022/08/29 05:23:34;;;;;;;0.10;0.10;;;;;;;8.84;97.54;102178.16;5011314;28;20029;-71
2022/08/29 05:26:02;;;;;;;0.10;0.10;;;;;;;8.80;97.90;102151.59;5013480;28;20260;-71
2022/08/29 05:28:29;;;;;;;0.10;0.10;;;;;;;9.07;98.27;102173.47;5018934;28;20041;-72
2022/08/29 05:30:55;;;;;;;0.10;0.10;;;;;;;9.18;98.72;102178.28;5019693;28;20502;-72
2022/08/29 05:33:20;;;;;;;0.30;0.30;;;;;;;9.21;99.20;102169.22;5011743;28;20026;-71
2022/08/29 05:35:46;;;;;;;0.10;0.10;;;;;;;9.36;99.00;102181.84;5006105;28;20033;-71
2022/08/29 05:38:12;;;;;;;0.10;0.10;;;;;;;9.42;99.12;102180.63;5018137;28;20116;-71
2022/08/29 05:40:37;;;;;;;0.10;0.10;;;;;;;9.49;99.03;102178.53;5022515;28;20334;-71
2022/08/29 05:43:04;;;;;;;0.10;0.10;;;;;;;9.60;99.41;102184.19;4998558;28;20487;-71
2022/08/29 05:45:30;;;;;;;0.10;0.10;;;;;;;9.70;99.82;102173.84;5003341;28;20029;-72
2022/08/29 05:47:55;;;;;;;0.00;0.00;;;;;;;9.83;100.00;102168.69;5000630;28;20048;-72
2022/08/29 05:50:21;;;;;;;0.10;0.10;;;;;;;9.74;100.00;102141.44;4998640;28;20479;-72
2022/08/29 05:52:47;;;;;;;0.10;0.10;;;;;;;9.94;100.00;102152.91;5002321;28;20026;-71
2022/08/29 05:55:12;;;;;;;0.10;0.10;;;;;;;9.97;100.00;102147.38;5009792;28;20056;-71
2022/08/29 05:57:37;;;;;;;0.00;0.00;;;;;;;10.33;100.00;102172.25;5006282;28;20574;-70
2022/08/29 06:00:06;;;;;;;0.00;0.00;;;;;;;10.50;100.00;102180.25;5015911;28;20084;-71
2022/08/29 06:02:31;;;;;;;0.10;0.10;;;;;;;10.73;100.00;102182.59;5005615;28;20042;-75
2022/08/29 06:04:57;;;;;;;0.00;0.00;;;;;;;10.88;100.00;102180.88;4997237;28;20044;-69
2022/08/29 06:07:23;;;;;;;0.00;0.00;;;;;;;11.03;100.00;102185.34;5004222;28;20109;-74
2022/08/29 06:09:51;;;;;;;0.10;0.10;;;;;;;11.07;100.00;102161.84;5012901;28;20026;-72
2022/08/29 06:12:17;;;;;;;0.10;0.10;;;;;;;11.37;100.00;102186.03;5003372;28;20038;-68
2022/08/29 06:14:42;;;;;;;0.10;0.10;;;;;;;11.50;100.00;102188.00;5005966;28;20064;-67
2022/08/29 06:17:08;;;;;;;0.10;0.10;;;;;;;11.69;100.00;102187.72;5003579;28;20033;-73
2022/08/29 06:19:33;;;;;;;0.10;0.10;;;;;;;11.90;100.00;102187.38;5010578;28;20057;-72
2022/08/29 06:22:01;;;;;;;0.10;0.10;;;;;;;12.06;100.00;102195.38;4996730;28;20239;-72
2022/08/29 06:24:26;;;;;;;0.00;0.00;;;;;;;12.19;100.00;102193.66;5002481;28;20040;-73
2022/08/29 06:26:51;;;;;;;0.00;0.00;;;;;;;12.42;100.00;102200.28;5004705;28;20026;-73
2022/08/29 06:29:16;;;;;;;0.03;0.03;;;;;;;12.62;100.00;102198.13;5011441;28;20146;-73
2022/08/29 06:31:42;;;;;;;0.10;0.10;;;;;;;12.77;99.28;102190.88;5010347;28;20545;-73
2022/08/29 06:34:08;;;;;;;0.10;0.10;;;;;;;12.99;98.16;102187.59;5010397;28;20404;-73
2022/08/29 06:36:34;;;;;;;0.00;0.00;;;;;;;13.23;97.76;102194.16;5003049;28;20036;-73
2022/08/29 06:39:01;;;;;;;0.05;0.05;;;;;;;13.35;96.98;102201.44;5001548;28;20030;-73
2022/08/29 06:41:27;;;;;;;0.00;0.00;;;;;;;13.63;95.92;102204.97;4998836;28;20103;-73
2022/08/29 06:43:56;;;;;;;0.00;0.00;;;;;;;13.80;95.26;102210.03;5001600;28;20476;-73
2022/08/29 06:46:25;;;;;;;0.00;0.00;;;;;;;13.84;95.22;102199.03;4989711;28;20064;-73
2022/08/29 06:48:51;;;;;;;0.10;0.10;;;;;;;13.93;95.55;102212.75;5000714;28;20026;-73
2022/08/29 06:51:16;;;;;;;0.00;0.00;;;;;;;13.90;96.02;102194.06;5005902;28;20519;-74
2022/08/29 06:53:42;;;;;;;0.00;0.00;;;;;;;14.02;96.15;102202.28;4998788;28;20030;-73
2022/08/29 06:56:07;;;;;;;0.00;0.00;;;;;;;14.09;95.86;102204.44;5001104;28;20033;-73
2022/08/29 06:58:33;;;;;;;0.00;0.00;;;;;;;14.06;95.38;102198.34;4996335;28;20057;-74
2022/08/29 07:01:08;;;;;;;0.03;0.03;;;;;;;14.09;96.14;102192.75;4996883;28;20030;-74
2022/08/29 07:03:34;;;;;;;0.05;0.05;;;;;;;14.20;96.37;102194.66;5009601;28;20374;-74
2022/08/29 07:05:59;;;;;;;0.10;0.10;;;;;;;14.34;94.73;102213.47;5012258;28;20048;-73
2022/08/29 07:08:24;;;;;;;0.08;0.08;;;;;;;14.42;93.34;102203.94;5009363;28;20036;-74
2022/08/29 07:10:50;;;;;;;0.00;0.00;;;;;;;14.56;92.93;102203.78;5005713;28;20461;-74
2022/08/29 07:13:15;;;;;;;0.10;0.10;;;;;;;14.60;91.93;102196.31;5007193;28;20095;-74
2022/08/29 07:15:40;;;;;;;0.10;0.10;;;;;;;14.64;91.66;102178.91;5012077;28;20357;-74
2022/08/29 07:18:06;;;;;;;0.10;0.10;;;;;;;14.97;91.81;102213.41;5010664;28;20061;-74
2022/08/29 07:20:31;;;;;;;0.00;0.00;;;;;;;15.17;91.40;102218.28;4999409;28;20076;-74
2022/08/29 07:22:56;;;;;;;0.00;0.00;;;;;;;15.36;90.00;102220.47;5002620;28;20104;-74
2022/08/29 07:25:23;;;;;;;0.10;0.10;;;;;;;15.49;89.11;102220.38;5011813;28;20072;-74
2022/08/29 07:27:49;;;;;;;0.00;0.00;;;;;;;15.64;88.12;102215.63;5010177;28;20438;-73
2022/08/29 07:30:15;;;;;;;0.08;0.08;;;;;;;15.86;88.31;102220.28;5012808;28;20057;-74
2022/08/29 07:32:43;;;;;;;0.08;0.08;;;;;;;16.13;87.76;102209.09;5011564;28;20072;-74
2022/08/29 07:35:10;;;;;;;0.10;0.10;;;;;;;16.36;86.90;102209.06;5015610;28;20059;-74
2022/08/29 07:37:35;;;;;;;0.00;0.00;;;;;;;16.51;85.31;102203.41;5013874;28;20026;-74
2022/08/29 07:40:01;;;;;;;0.00;0.00;;;;;;;16.60;83.72;102195.38;5006443;28;20034;-75
2022/08/29 07:42:26;;;;;;;0.00;0.00;;;;;;;16.77;80.37;102201.25;5008687;28;20455;-75
2022/08/29 07:44:52;;;;;;;0.03;0.03;;;;;;;16.95;80.29;102209.72;5001230;28;20033;-75
2022/08/29 07:47:17;;;;;;;0.00;0.00;;;;;;;17.12;80.61;102211.06;5008262;28;20464;-75
2022/08/29 07:49:42;;;;;;;0.10;0.10;;;;;;;17.22;80.52;102198.41;5009282;28;20494;-75
2022/08/29 07:52:08;;;;;;;0.00;0.00;;;;;;;17.47;78.67;102206.31;5006648;28;20033;-75
2022/08/29 07:54:33;;;;;;;0.10;0.10;;;;;;;17.66;78.46;102203.72;4999945;28;20140;-76
2022/08/29 07:56:59;;;;;;;0.00;0.00;;;;;;;17.89;78.72;102209.00;5003483;28;20019;-75
2022/08/29 07:59:24;;;;;;;0.05;0.05;;;;;;;17.98;75.45;102208.25;5009701;28;20030;-72
2022/08/29 08:01:50;;;;;;;0.03;0.03;;;;;;;18.02;73.46;102188.94;5003081;28;20053;-75
2022/08/29 08:04:15;;;;;;;0.10;0.10;;;;;;;18.10;72.05;102219.03;5006710;28;20041;-75
2022/08/29 08:06:41;;;;;;;0.00;0.00;;;;;;;18.06;71.30;102218.44;4999592;28;20049;-74
2022/08/29 08:09:08;;;;;;;0.00;0.00;;;;;;;18.19;71.00;102212.75;5005373;28;20033;-74
2022/08/29 08:11:35;;;;;;;0.05;0.05;;;;;;;18.36;70.65;102213.13;5002253;28;20400;-74
2022/08/29 08:14:01;;;;;;;0.00;0.00;;;;;;;18.52;70.11;102208.03;5009404;28;20028;-73
2022/08/29 08:16:27;;;;;;;0.00;0.00;;;;;;;18.66;68.86;102208.66;5012073;28;20514;-75
2022/08/29 08:18:53;;;;;;;0.00;0.00;;;;;;;18.75;69.28;102205.06;4998752;28;20034;-75
2022/08/29 08:21:18;;;;;;;0.00;0.00;;;;;;;18.95;67.54;102200.56;5013559;28;20033;-73
2022/08/29 08:23:44;;;;;;;0.00;0.00;;;;;;;18.86;66.33;102196.78;5015190;28;20036;-74
2022/08/29 08:26:11;;;;;;;0.00;0.00;;;;;;;18.82;65.93;102202.63;5012945;28;20495;-74
2022/08/29 08:28:37;;;;;;;0.00;0.00;;;;;;;18.94;67.22;102198.81;5011005;28;20040;-75
2022/08/29 08:31:04;;;;;;;0.00;0.00;;;;;;;19.12;67.29;102189.94;5003636;28;20030;-74
2022/08/29 08:33:29;;;;;;;0.00;0.00;;;;;;;19.35;65.16;102193.25;5015385;28;20124;-74
2022/08/29 08:35:56;;;;;;;0.00;0.00;;;;;;;19.21;63.62;102161.00;5013549;28;20472;-74
2022/08/29 08:38:21;;;;;;;0.00;0.00;;;;;;;19.37;62.69;102203.97;5009100;28;20029;-75
2022/08/29 08:40:55;;;;;;;0.00;0.00;;;;;;;19.18;63.11;102190.25;5008176;28;20052;-75
2022/08/29 08:43:24;;;;;;;0.00;0.00;;;;;;;19.27;62.26;102212.16;4992142;28;20033;-71
2022/08/29 08:45:49;;;;;;;0.00;0.00;;;;;;;19.09;61.87;102188.38;5015394;28;20025;-74
2022/08/29 08:48:18;;;;;;;0.00;0.00;;;;;;;19.30;61.18;102201.00;5018740;28;20041;-72
2022/08/29 08:50:50;;;;;;;0.00;0.00;;;;;;;19.29;59.92;102218.31;5010647;28;20026;-73
2022/08/29 08:53:20;;;;;;;0.00;0.00;;;;;;;19.30;60.10;102211.88;4999498;28;20029;-73
2022/08/29 08:55:53;;;;;;;0.00;0.00;;;;;;;19.36;60.47;102211.31;5003304;28;20373;-73
2022/08/29 08:58:22;;;;;;;0.00;0.00;;;;;;;19.29;60.94;102208.31;5002929;28;20464;-73
2022/08/29 09:00:54;;;;;;;0.00;0.00;;;;;;;19.29;61.61;102210.16;5019461;28;20350;-73
2022/08/29 09:03:38;;;;;;;0.00;0.00;;;;;;;19.18;59.80;102206.59;5006701;28;20033;-74
2022/08/29 09:06:38;;;;;;;0.00;0.00;;;;;;;19.06;59.27;102201.44;4995254;28;20026;-73
2022/08/29 09:09:24;;;;;;;0.00;0.00;;;;;;;18.97;60.34;102211.28;5005290;28;20057;-72
2022/08/29 09:12:27;;;;;;;0.10;0.10;;;;;;;19.06;59.72;102207.72;5002072;28;20415;-74
2022/08/29 09:15:08;;;;;;;0.00;0.00;;;;;;;19.13;60.58;102208.00;5008977;28;20056;-73
2022/08/29 09:17:41;;;;;;;0.00;0.00;;;;;;;19.30;59.93;102215.47;5009403;28;20037;-74
2022/08/29 09:20:12;;;;;;;0.00;0.00;;;;;;;19.34;59.67;102200.53;4995106;28;20487;-75
2022/08/29 09:22:39;;;;;;;0.00;0.00;;;;;;;19.34;57.94;102192.38;5001360;28;20045;-72
2022/08/29 09:25:07;;;;;;;0.00;0.00;;;;;;;19.45;59.51;102193.22;4985438;28;20033;-76
2022/08/29 09:27:34;;;;;;;0.00;0.00;;;;;;;19.66;57.45;102211.25;5006474;28;20133;-74
2022/08/29 09:30:05;;;;;;;0.10;0.10;;;;;;;19.94;58.68;102217.69;5008065;28;20037;-74
2022/08/29 09:32:31;;;;;;;0.00;0.00;;;;;;;20.20;57.82;102219.75;5015038;28;20075;-74
2022/08/29 09:34:58;;;;;;;0.00;0.00;;;;;;;20.38;59.06;102217.09;5017058;28;20503;-74
2022/08/29 09:37:33;;;;;;;0.10;0.10;;;;;;;19.89;56.78;102206.38;5004442;28;20025;-73
2022/08/29 09:40:00;;;;;;;0.00;0.00;;;;;;;20.16;57.70;102213.72;5014776;28;20029;-75
2022/08/29 09:42:39;;;;;;;0.00;0.00;;;;;;;20.18;56.81;102213.59;5010760;28;20034;-73
2022/08/29 09:45:25;;;;;;;0.00;0.00;;;;;;;20.27;55.93;102211.81;5009520;28;20035;-74
2022/08/29 09:48:10;;;;;;;0.00;0.00;;;;;;;20.44;56.62;102216.47;5020066;28;20026;-74
2022/08/29 09:50:35;;;;;;;0.00;0.00;;;;;;;20.34;57.65;102194.69;4995428;28;20036;-74
2022/08/29 09:53:03;;;;;;;0.20;0.20;;;;;;;20.29;58.90;102212.53;5004812;28;20098;-74
2022/08/29 09:55:31;;;;;;;0.00;0.00;;;;;;;20.29;58.65;102210.66;5011739;28;20555;-73
2022/08/29 09:58:27;;;;;;;0.00;0.00;;;;;;;20.23;57.11;102209.41;5007741;28;20049;-73
2022/08/29 10:01:03;;;;;;;0.00;0.00;;;;;;;20.05;59.66;102209.31;5012599;28;20034;-75
2022/08/29 10:03:32;;;;;;;0.00;0.00;;;;;;;19.96;58.99;102191.16;5000661;28;20030;-75
2022/08/29 10:06:15;;;;;;;0.00;0.00;;;;;;;19.91;59.73;102204.34;5003691;28;20025;-74
2022/08/29 10:08:42;;;;;;;0.00;0.00;;;;;;;19.99;59.05;102203.59;5010078;28;20438;-73
2022/08/29 10:11:27;;;;;;;0.00;0.00;;;;;;;19.76;61.01;102207.50;5004454;28;20049;-75
2022/08/29 10:13:59;;;;;;;0.00;0.00;;;;;;;19.64;60.50;102205.97;5001994;28;20128;-74
2022/08/29 10:16:53;;;;;;;0.00;0.00;;;;;;;19.69;59.89;102209.13;5000723;28;20128;-74
2022/08/29 10:19:25;;;;;;;0.00;0.00;;;;;;;19.52;61.56;102213.44;5002654;28;20069;-73
2022/08/29 10:22:32;;;;;;;0.00;0.00;;;;;;;19.85;61.15;102215.81;5001723;28;20038;-71
2022/08/29 10:25:05;;;;;;;0.00;0.00;;;;;;;19.79;60.38;102214.53;4952366;28;20047;-74
2022/08/29 10:27:47;;;;;;;0.00;0.00;;;;;;;19.78;60.97;102219.13;4990827;28;20038;-75
2022/08/29 10:30:20;;;;;;;0.00;0.00;;;;;;;19.63;61.21;102212.44;5003363;28;20112;-73
2022/08/29 10:33:06;;;;;;;0.00;0.00;;;;;;;19.63;62.14;102216.00;5013474;28;20030;-73
2022/08/29 10:35:38;;;;;;;0.00;0.00;;;;;;;19.69;61.94;102214.56;4999530;28;20089;-72
2022/08/29 10:38:18;;;;;;;0.00;0.00;;;;;;;19.84;60.71;102211.38;5003212;28;20193;-72
2022/08/29 10:40:48;;;;;;;0.00;0.00;;;;;;;19.97;61.58;102211.94;5001759;28;20025;-72
2022/08/29 10:43:25;;;;;;;0.00;0.00;;;;;;;20.01;61.34;102204.31;5012831;28;20045;-72
2022/08/29 10:46:05;;;;;;;0.00;0.00;;;;;;;20.04;60.56;102193.97;5008575;28;20031;-72
2022/08/29 10:48:51;;;;;;;0.00;0.00;;;;;;;20.25;60.34;102189.31;5006499;28;20038;-72
2022/08/29 10:51:23;;;;;;;0.00;0.00;;;;;;;20.23;60.29;102187.59;4991487;28;20476;-72
2022/08/29 10:53:57;;;;;;;0.00;0.00;;;;;;;20.41;60.27;102185.91;5000219;28;20026;-73
2022/08/29 10:56:43;;;;;;;0.00;0.00;;;;;;;20.55;58.90;102193.56;5004604;28;20469;-72
2022/08/29 10:59:17;;;;;;;0.00;0.00;;;;;;;20.71;57.69;102192.06;5004831;28;20060;-72
2022/08/29 11:01:59;;;;;;;0.00;0.00;;;;;;;20.55;57.46;102193.56;4999152;28;20108;-73
2022/08/29 11:04:40;;;;;;;0.00;0.00;;;;;;;20.56;55.65;102153.53;5002723;28;20040;-75
2022/08/29 11:07:20;;;;;;;0.10;0.10;;;;;;;21.09;56.88;102184.59;5000599;28;20484;-77
2022/08/29 11:09:49;;;;;;;0.00;0.00;;;;;;;21.34;56.45;102165.69;4994568;28;20026;-74
2022/08/29 11:12:33;;;;;;;0.00;0.00;;;;;;;21.20;56.10;102173.47;4998887;28;20388;-75
2022/08/29 11:15:10;;;;;;;0.00;0.00;;;;;;;21.50;54.99;102176.78;5004088;28;20527;-75
2022/08/29 11:17:39;;;;;;;0.00;0.00;;;;;;;22.44;56.91;102162.44;4994829;28;20316;-76
2022/08/29 11:20:14;;;;;;;0.00;0.00;;;;;;;22.84;50.49;102163.53;4999608;28;20411;-76
2022/08/29 11:22:47;;;;;;;0.00;0.00;;;;;;;22.59;52.04;102158.03;5004166;28;20495;-75
2022/08/29 11:25:16;;;;;;;0.00;0.00;;;;;;;22.93;51.25;102164.41;5000320;28;20045;-73
2022/08/29 11:28:28;;;;;;;0.00;0.00;;;;;;;23.77;49.13;102161.47;4998780;28;20026;-71
2022/08/29 11:30:57;;;;;;;0.00;0.00;;;;;;;24.07;49.29;102153.53;4995829;28;20034;-73
2022/08/29 11:33:41;;;;;;;0.00;0.00;;;;;;;23.52;48.59;102150.56;5000126;28;20033;-73
2022/08/29 11:36:14;;;;;;;0.00;0.00;;;;;;;23.16;49.35;102150.06;5000635;28;20091;-74